sensor_id;sensor_type;location;lat;lon;timestamp;P1;durP1;ratioP1;P2;durP2;ratioP2
36923;SDS011;22841;50.252;18.688;2023-04-01T00:00:56;5.60;;;2.45;;
36923;SDS011;22841;50.252;18.688;2023-04-01T00:03:24;6.20;;;2.50;;
36923;SDS011;22841;50.252;18.688;2023-04-01T00:05:55;5.55;;;2.47;;
36923;SDS011;22841;50.252;18.688;2023-04-01T00:08:21;6.32;;;2.72;;
36923;SDS011;22841;50.252;18.688;2023-04-01T00:10:48;5.05;;;3.17;;
36923;SDS011;22841;50.252;18.688;2023-04-01T00:13:14;8.02;;;2.85;;
36923;SDS011;22841;50.252;18.688;2023-04-01T00:15:41;6.45;;;2.63;;
36923;SDS011;22841;50.252;18.688;2023-04-01T00:18:07;6.00;;;3.17;;
36923;SDS011;22841;50.252;18.688;2023-04-01T00:20:34;6.43;;;2.70;;
36923;SDS011;22841;50.252;18.688;2023-04-01T00:23:00;3.97;;;2.60;;
36923;SDS011;22841;50.252;18.688;2023-04-01T00:25:26;3.53;;;2.63;;
36923;SDS011;22841;50.252;18.688;2023-04-01T00:27:52;5.90;;;2.90;;
36923;SDS011;22841;50.252;18.688;2023-04-01T00:30:18;6.47;;;3.03;;
36923;SDS011;22841;50.252;18.688;2023-04-01T00:32:45;5.35;;;3.10;;
36923;SDS011;22841;50.252;18.688;2023-04-01T00:35:11;7.82;;;2.92;;
36923;SDS011;22841;50.252;18.688;2023-04-01T00:37:38;7.53;;;3.08;;
36923;SDS011;22841;50.252;18.688;2023-04-01T00:40:07;7.10;;;3.45;;
36923;SDS011;22841;50.252;18.688;2023-04-01T00:42:48;9.93;;;4.50;;
36923;SDS011;22841;50.252;18.688;2023-04-01T00:45:48;8.55;;;3.45;;
36923;SDS011;22841;50.252;18.688;2023-04-01T00:48:10;6.68;;;2.88;;
36923;SDS011;22841;50.252;18.688;2023-04-01T00:50:37;7.95;;;3.13;;
36923;SDS011;22841;50.252;18.688;2023-04-01T00:53:06;15.40;;;3.90;;
36923;SDS011;22841;50.252;18.688;2023-04-01T00:55:34;5.65;;;2.78;;
36923;SDS011;22841;50.252;18.688;2023-04-01T00:58:03;4.57;;;2.60;;
36923;SDS011;22841;50.252;18.688;2023-04-01T01:00:34;13.80;;;3.50;;
36923;SDS011;22841;50.252;18.688;2023-04-01T01:03:01;6.50;;;2.97;;
36923;SDS011;22841;50.252;18.688;2023-04-01T01:05:31;10.50;;;3.60;;
36923;SDS011;22841;50.252;18.688;2023-04-01T01:08:12;5.43;;;3.03;;
36923;SDS011;22841;50.252;18.688;2023-04-01T01:10:48;5.00;;;2.83;;
36923;SDS011;22841;50.252;18.688;2023-04-01T01:13:26;9.90;;;3.60;;
36923;SDS011;22841;50.252;18.688;2023-04-01T01:16:44;7.07;;;3.75;;
36923;SDS011;22841;50.252;18.688;2023-04-01T01:19:18;13.43;;;3.53;;
36923;SDS011;22841;50.252;18.688;2023-04-01T01:24:52;8.48;;;3.50;;
36923;SDS011;22841;50.252;18.688;2023-04-01T01:33:34;9.52;;;3.50;;
36923;SDS011;22841;50.252;18.688;2023-04-01T01:36:12;7.35;;;3.58;;
36923;SDS011;22841;50.252;18.688;2023-04-01T01:38:40;11.77;;;3.90;;
36923;SDS011;22841;50.252;18.688;2023-04-01T01:41:07;5.97;;;3.58;;
36923;SDS011;22841;50.252;18.688;2023-04-01T01:43:37;8.45;;;3.80;;
36923;SDS011;22841;50.252;18.688;2023-04-01T01:46:13;8.30;;;4.05;;
36923;SDS011;22841;50.252;18.688;2023-04-01T01:48:42;7.35;;;3.70;;
36923;SDS011;22841;50.252;18.688;2023-04-01T01:51:10;5.43;;;4.32;;
36923;SDS011;22841;50.252;18.688;2023-04-01T01:53:36;7.50;;;3.95;;
36923;SDS011;22841;50.252;18.688;2023-04-01T01:56:03;9.85;;;4.13;;
36923;SDS011;22841;50.252;18.688;2023-04-01T01:58:31;14.20;;;5.55;;
36923;SDS011;22841;50.252;18.688;2023-04-01T02:01:07;13.85;;;4.50;;
36923;SDS011;22841;50.252;18.688;2023-04-01T02:03:41;11.15;;;5.05;;
36923;SDS011;22841;50.252;18.688;2023-04-01T02:06:10;9.18;;;4.57;;
36923;SDS011;22841;50.252;18.688;2023-04-01T02:11:06;13.45;;;5.88;;
36923;SDS011;22841;50.252;18.688;2023-04-01T02:13:52;12.82;;;6.53;;
36923;SDS011;22841;50.252;18.688;2023-04-01T02:16:31;19.35;;;6.85;;
36923;SDS011;22841;50.252;18.688;2023-04-01T02:19:09;15.18;;;6.75;;
36923;SDS011;22841;50.252;18.688;2023-04-01T02:21:37;9.88;;;5.78;;
36923;SDS011;22841;50.252;18.688;2023-04-01T02:24:08;10.80;;;6.00;;
36923;SDS011;22841;50.252;18.688;2023-04-01T02:26:38;12.98;;;6.82;;
36923;SDS011;22841;50.252;18.688;2023-04-01T02:29:05;12.10;;;6.93;;
36923;SDS011;22841;50.252;18.688;2023-04-01T02:31:33;13.85;;;6.88;;
36923;SDS011;22841;50.252;18.688;2023-04-01T02:34:00;11.43;;;6.63;;
36923;SDS011;22841;50.252;18.688;2023-04-01T02:36:29;13.77;;;6.32;;
36923;SDS011;22841;50.252;18.688;2023-04-01T02:38:56;16.13;;;6.60;;
36923;SDS011;22841;50.252;18.688;2023-04-01T02:41:26;11.70;;;6.30;;
36923;SDS011;22841;50.252;18.688;2023-04-01T02:43:52;12.98;;;6.97;;
36923;SDS011;22841;50.252;18.688;2023-04-01T02:46:19;15.18;;;7.00;;
36923;SDS011;22841;50.252;18.688;2023-04-01T02:48:45;12.57;;;6.60;;
36923;SDS011;22841;50.252;18.688;2023-04-01T02:51:11;11.98;;;6.18;;
36923;SDS011;22841;50.252;18.688;2023-04-01T02:53:37;11.00;;;6.57;;
36923;SDS011;22841;50.252;18.688;2023-04-01T02:56:03;12.55;;;6.85;;
36923;SDS011;22841;50.252;18.688;2023-04-01T02:58:29;14.02;;;6.93;;
36923;SDS011;22841;50.252;18.688;2023-04-01T03:00:55;10.43;;;6.93;;
36923;SDS011;22841;50.252;18.688;2023-04-01T03:03:21;14.35;;;7.40;;
36923;SDS011;22841;50.252;18.688;2023-04-01T03:05:47;16.02;;;9.32;;
36923;SDS011;22841;50.252;18.688;2023-04-01T03:08:13;14.95;;;8.25;;
36923;SDS011;22841;50.252;18.688;2023-04-01T03:10:39;15.05;;;8.25;;
36923;SDS011;22841;50.252;18.688;2023-04-01T03:13:05;15.10;;;8.90;;
36923;SDS011;22841;50.252;18.688;2023-04-01T03:15:32;16.75;;;8.95;;
36923;SDS011;22841;50.252;18.688;2023-04-01T03:17:58;16.30;;;8.65;;
36923;SDS011;22841;50.252;18.688;2023-04-01T03:20:24;15.70;;;8.20;;
36923;SDS011;22841;50.252;18.688;2023-04-01T03:22:50;15.18;;;8.13;;
36923;SDS011;22841;50.252;18.688;2023-04-01T03:25:17;15.13;;;8.15;;
36923;SDS011;22841;50.252;18.688;2023-04-01T03:27:44;15.48;;;7.55;;
36923;SDS011;22841;50.252;18.688;2023-04-01T03:30:10;15.80;;;7.72;;
36923;SDS011;22841;50.252;18.688;2023-04-01T03:32:36;18.10;;;7.97;;
36923;SDS011;22841;50.252;18.688;2023-04-01T03:35:02;15.85;;;7.88;;
36923;SDS011;22841;50.252;18.688;2023-04-01T03:37:29;16.17;;;7.50;;
36923;SDS011;22841;50.252;18.688;2023-04-01T03:39:55;22.25;;;8.10;;
36923;SDS011;22841;50.252;18.688;2023-04-01T03:42:21;14.68;;;7.70;;
36923;SDS011;22841;50.252;18.688;2023-04-01T03:44:47;14.48;;;7.32;;
36923;SDS011;22841;50.252;18.688;2023-04-01T03:47:13;13.70;;;7.57;;
36923;SDS011;22841;50.252;18.688;2023-04-01T03:49:39;10.02;;;6.30;;
36923;SDS011;22841;50.252;18.688;2023-04-01T03:52:07;15.40;;;6.57;;
36923;SDS011;22841;50.252;18.688;2023-04-01T03:54:36;15.02;;;7.47;;
36923;SDS011;22841;50.252;18.688;2023-04-01T03:57:02;11.63;;;6.30;;
36923;SDS011;22841;50.252;18.688;2023-04-01T03:59:28;11.32;;;5.93;;
36923;SDS011;22841;50.252;18.688;2023-04-01T04:01:54;16.98;;;6.43;;
36923;SDS011;22841;50.252;18.688;2023-04-01T04:04:20;8.75;;;6.38;;
36923;SDS011;22841;50.252;18.688;2023-04-01T04:06:47;10.85;;;5.90;;
36923;SDS011;22841;50.252;18.688;2023-04-01T04:09:13;10.07;;;5.57;;
36923;SDS011;22841;50.252;18.688;2023-04-01T04:11:39;11.15;;;5.97;;
36923;SDS011;22841;50.252;18.688;2023-04-01T04:14:05;15.02;;;5.70;;
36923;SDS011;22841;50.252;18.688;2023-04-01T04:16:31;10.32;;;4.47;;
36923;SDS011;22841;50.252;18.688;2023-04-01T04:18:59;10.95;;;5.13;;
36923;SDS011;22841;50.252;18.688;2023-04-01T04:21:25;7.93;;;4.82;;
36923;SDS011;22841;50.252;18.688;2023-04-01T04:23:51;7.05;;;4.53;;
36923;SDS011;22841;50.252;18.688;2023-04-01T04:26:17;10.93;;;4.38;;
36923;SDS011;22841;50.252;18.688;2023-04-01T04:28:43;9.85;;;4.75;;
36923;SDS011;22841;50.252;18.688;2023-04-01T04:31:10;8.73;;;4.55;;
36923;SDS011;22841;50.252;18.688;2023-04-01T04:33:36;9.05;;;4.95;;
36923;SDS011;22841;50.252;18.688;2023-04-01T04:36:03;9.07;;;4.95;;
36923;SDS011;22841;50.252;18.688;2023-04-01T04:38:29;7.78;;;4.57;;
36923;SDS011;22841;50.252;18.688;2023-04-01T04:40:55;6.13;;;4.53;;
36923;SDS011;22841;50.252;18.688;2023-04-01T04:43:22;9.95;;;4.80;;
36923;SDS011;22841;50.252;18.688;2023-04-01T04:45:48;9.13;;;4.82;;
36923;SDS011;22841;50.252;18.688;2023-04-01T04:48:15;8.10;;;4.85;;
36923;SDS011;22841;50.252;18.688;2023-04-01T04:50:44;8.35;;;5.00;;
36923;SDS011;22841;50.252;18.688;2023-04-01T04:53:11;9.52;;;4.72;;
36923;SDS011;22841;50.252;18.688;2023-04-01T04:55:42;8.35;;;5.15;;
36923;SDS011;22841;50.252;18.688;2023-04-01T04:58:12;10.02;;;5.53;;
36923;SDS011;22841;50.252;18.688;2023-04-01T05:00:40;8.35;;;4.55;;
36923;SDS011;22841;50.252;18.688;2023-04-01T05:03:06;14.00;;;4.97;;
36923;SDS011;22841;50.252;18.688;2023-04-01T05:05:32;8.45;;;4.68;;
36923;SDS011;22841;50.252;18.688;2023-04-01T05:07:58;10.30;;;5.10;;
36923;SDS011;22841;50.252;18.688;2023-04-01T05:10:25;10.88;;;4.95;;
36923;SDS011;22841;50.252;18.688;2023-04-01T05:12:51;7.40;;;4.72;;
36923;SDS011;22841;50.252;18.688;2023-04-01T05:15:17;8.93;;;4.85;;
36923;SDS011;22841;50.252;18.688;2023-04-01T05:17:43;8.35;;;4.93;;
36923;SDS011;22841;50.252;18.688;2023-04-01T05:20:11;13.82;;;4.63;;
36923;SDS011;22841;50.252;18.688;2023-04-01T05:22:38;18.02;;;5.90;;
36923;SDS011;22841;50.252;18.688;2023-04-01T05:25:04;10.77;;;5.28;;
36923;SDS011;22841;50.252;18.688;2023-04-01T05:27:30;12.50;;;4.93;;
36923;SDS011;22841;50.252;18.688;2023-04-01T05:29:57;15.65;;;5.90;;
36923;SDS011;22841;50.252;18.688;2023-04-01T05:32:23;11.77;;;4.72;;
36923;SDS011;22841;50.252;18.688;2023-04-01T05:34:50;9.05;;;5.68;;
36923;SDS011;22841;50.252;18.688;2023-04-01T05:37:17;10.57;;;4.78;;
36923;SDS011;22841;50.252;18.688;2023-04-01T05:39:43;11.45;;;5.20;;
36923;SDS011;22841;50.252;18.688;2023-04-01T05:42:09;11.27;;;5.13;;
36923;SDS011;22841;50.252;18.688;2023-04-01T05:44:35;11.07;;;5.20;;
36923;SDS011;22841;50.252;18.688;2023-04-01T05:47:02;12.10;;;5.47;;
36923;SDS011;22841;50.252;18.688;2023-04-01T05:49:29;9.13;;;5.35;;
36923;SDS011;22841;50.252;18.688;2023-04-01T05:51:56;9.32;;;5.50;;
36923;SDS011;22841;50.252;18.688;2023-04-01T05:54:22;14.13;;;5.45;;
36923;SDS011;22841;50.252;18.688;2023-04-01T05:56:48;11.10;;;5.53;;
36923;SDS011;22841;50.252;18.688;2023-04-01T05:59:14;9.23;;;5.50;;
36923;SDS011;22841;50.252;18.688;2023-04-01T06:01:41;8.75;;;5.03;;
36923;SDS011;22841;50.252;18.688;2023-04-01T06:04:10;8.18;;;5.68;;
36923;SDS011;22841;50.252;18.688;2023-04-01T06:25:53;13.93;;;6.05;;
36923;SDS011;22841;50.252;18.688;2023-04-01T06:28:41;14.80;;;6.13;;
36923;SDS011;22841;50.252;18.688;2023-04-01T06:52:56;17.85;;;6.15;;
36923;SDS011;22841;50.252;18.688;2023-04-01T06:55:46;13.18;;;6.68;;
36923;SDS011;22841;50.252;18.688;2023-04-01T07:00:52;14.40;;;6.35;;
36923;SDS011;22841;50.252;18.688;2023-04-01T07:09:17;14.85;;;7.38;;
36923;SDS011;22841;50.252;18.688;2023-04-01T07:11:46;15.13;;;6.82;;
36923;SDS011;22841;50.252;18.688;2023-04-01T07:14:24;14.30;;;7.18;;
36923;SDS011;22841;50.252;18.688;2023-04-01T07:17:03;17.25;;;7.65;;
36923;SDS011;22841;50.252;18.688;2023-04-01T07:19:51;12.35;;;6.78;;
36923;SDS011;22841;50.252;18.688;2023-04-01T07:25:03;15.25;;;7.18;;
36923;SDS011;22841;50.252;18.688;2023-04-01T07:27:36;15.63;;;7.63;;
36923;SDS011;22841;50.252;18.688;2023-04-01T07:30:04;16.88;;;7.97;;
36923;SDS011;22841;50.252;18.688;2023-04-01T07:32:39;18.20;;;8.48;;
36923;SDS011;22841;50.252;18.688;2023-04-01T07:35:15;11.10;;;7.22;;
36923;SDS011;22841;50.252;18.688;2023-04-01T07:38:10;14.25;;;6.93;;
36923;SDS011;22841;50.252;18.688;2023-04-01T07:41:10;11.30;;;5.82;;
36923;SDS011;22841;50.252;18.688;2023-04-01T07:52:00;12.68;;;6.15;;
36923;SDS011;22841;50.252;18.688;2023-04-01T08:00:24;11.15;;;4.97;;
36923;SDS011;22841;50.252;18.688;2023-04-01T08:05:50;12.57;;;5.38;;
36923;SDS011;22841;50.252;18.688;2023-04-01T08:08:20;8.50;;;4.55;;
36923;SDS011;22841;50.252;18.688;2023-04-01T08:16:27;10.70;;;5.50;;
36923;SDS011;22841;50.252;18.688;2023-04-01T08:19:15;6.78;;;4.03;;
36923;SDS011;22841;50.252;18.688;2023-04-01T08:23:07;9.77;;;5.90;;
36923;SDS011;22841;50.252;18.688;2023-04-01T08:25:06;23.25;;;14.95;;
36923;SDS011;22841;50.252;18.688;2023-04-01T08:27:43;28.63;;;23.55;;
36923;SDS011;22841;50.252;18.688;2023-04-01T08:30:18;13.73;;;5.93;;
36923;SDS011;22841;50.252;18.688;2023-04-01T08:32:51;25.08;;;11.82;;
36923;SDS011;22841;50.252;18.688;2023-04-01T08:35:52;186.90;;;97.68;;
36923;SDS011;22841;50.252;18.688;2023-04-01T08:38:30;25.27;;;16.30;;
36923;SDS011;22841;50.252;18.688;2023-04-01T08:47:26;10.52;;;5.32;;
36923;SDS011;22841;50.252;18.688;2023-04-01T08:50:12;5.03;;;4.10;;
36923;SDS011;22841;50.252;18.688;2023-04-01T09:00:54;9.52;;;6.03;;
36923;SDS011;22841;50.252;18.688;2023-04-01T09:15:01;5.80;;;3.30;;
36923;SDS011;22841;50.252;18.688;2023-04-01T09:17:56;7.28;;;3.90;;
36923;SDS011;22841;50.252;18.688;2023-04-01T09:20:43;11.40;;;4.78;;
36923;SDS011;22841;50.252;18.688;2023-04-01T09:26:06;5.95;;;3.67;;
36923;SDS011;22841;50.252;18.688;2023-04-01T09:37:18;8.80;;;4.30;;
36923;SDS011;22841;50.252;18.688;2023-04-01T09:40:02;5.50;;;2.80;;
36923;SDS011;22841;50.252;18.688;2023-04-01T10:08:22;6.45;;;3.00;;
36923;SDS011;22841;50.252;18.688;2023-04-01T10:17:03;3.03;;;1.90;;
36923;SDS011;22841;50.252;18.688;2023-04-01T10:22:50;9.68;;;3.60;;
36923;SDS011;22841;50.252;18.688;2023-04-01T10:28:28;5.40;;;3.33;;
36923;SDS011;22841;50.252;18.688;2023-04-01T10:56:33;3.15;;;2.22;;
36923;SDS011;22841;50.252;18.688;2023-04-01T11:02:07;7.50;;;4.13;;
36923;SDS011;22841;50.252;18.688;2023-04-01T11:22:45;4.60;;;3.70;;
36923;SDS011;22841;50.252;18.688;2023-04-01T11:31:16;9.13;;;4.72;;
36923;SDS011;22841;50.252;18.688;2023-04-01T11:37:02;6.55;;;3.95;;
36923;SDS011;22841;50.252;18.688;2023-04-01T11:42:06;6.05;;;4.07;;
36923;SDS011;22841;50.252;18.688;2023-04-01T11:44:52;12.90;;;6.70;;
36923;SDS011;22841;50.252;18.688;2023-04-01T11:53:15;6.47;;;4.40;;
36923;SDS011;22841;50.252;18.688;2023-04-01T11:58:49;5.75;;;4.00;;
36923;SDS011;22841;50.252;18.688;2023-04-01T12:04:35;4.38;;;2.80;;
36923;SDS011;22841;50.252;18.688;2023-04-01T12:10:25;6.20;;;3.72;;
36923;SDS011;22841;50.252;18.688;2023-04-01T12:13:16;3.85;;;3.08;;
36923;SDS011;22841;50.252;18.688;2023-04-01T12:18:50;6.32;;;3.33;;
36923;SDS011;22841;50.252;18.688;2023-04-01T12:21:37;8.20;;;3.08;;
36923;SDS011;22841;50.252;18.688;2023-04-01T12:26:59;4.15;;;2.90;;
36923;SDS011;22841;50.252;18.688;2023-04-01T12:32:51;3.05;;;2.30;;
36923;SDS011;22841;50.252;18.688;2023-04-01T12:41:09;3.47;;;2.40;;
36923;SDS011;22841;50.252;18.688;2023-04-01T12:46:49;8.68;;;2.97;;
36923;SDS011;22841;50.252;18.688;2023-04-01T12:52:25;2.88;;;2.45;;
36923;SDS011;22841;50.252;18.688;2023-04-01T13:00:54;3.95;;;2.70;;
36923;SDS011;22841;50.252;18.688;2023-04-01T13:09:37;6.30;;;3.75;;
36923;SDS011;22841;50.252;18.688;2023-04-01T13:15:43;3.00;;;2.70;;
36923;SDS011;22841;50.252;18.688;2023-04-01T13:21:11;5.38;;;2.90;;
36923;SDS011;22841;50.252;18.688;2023-04-01T13:24:03;5.45;;;3.95;;
36923;SDS011;22841;50.252;18.688;2023-04-01T13:34:54;4.43;;;3.05;;
36923;SDS011;22841;50.252;18.688;2023-04-01T13:37:52;11.02;;;5.95;;
36923;SDS011;22841;50.252;18.688;2023-04-01T13:57:37;11.50;;;6.55;;
36923;SDS011;22841;50.252;18.688;2023-04-01T14:00:26;10.15;;;6.10;;
36923;SDS011;22841;50.252;18.688;2023-04-01T14:22:42;10.45;;;5.15;;
36923;SDS011;22841;50.252;18.688;2023-04-01T14:30:53;7.65;;;3.70;;
36923;SDS011;22841;50.252;18.688;2023-04-01T14:36:35;11.30;;;6.47;;
36923;SDS011;22841;50.252;18.688;2023-04-01T14:50:51;11.63;;;5.22;;
36923;SDS011;22841;50.252;18.688;2023-04-01T14:58:15;27.70;;;10.85;;
36923;SDS011;22841;50.252;18.688;2023-04-01T15:03:22;15.50;;;5.68;;
36923;SDS011;22841;50.252;18.688;2023-04-01T15:06:11;13.70;;;5.30;;
36923;SDS011;22841;50.252;18.688;2023-04-01T15:20:41;7.43;;;4.15;;
36923;SDS011;22841;50.252;18.688;2023-04-01T15:31:15;18.50;;;8.70;;
36923;SDS011;22841;50.252;18.688;2023-04-01T15:34:06;53.30;;;23.48;;
36923;SDS011;22841;50.252;18.688;2023-04-01T15:39:51;14.88;;;6.85;;
36923;SDS011;22841;50.252;18.688;2023-04-01T15:48:35;40.05;;;10.55;;
36923;SDS011;22841;50.252;18.688;2023-04-01T15:53:42;74.32;;;17.85;;
36923;SDS011;22841;50.252;18.688;2023-04-01T16:04:54;61.67;;;17.40;;
36923;SDS011;22841;50.252;18.688;2023-04-01T16:26:56;12.00;;;5.35;;
36923;SDS011;22841;50.252;18.688;2023-04-01T16:34:56;15.70;;;7.95;;
36923;SDS011;22841;50.252;18.688;2023-04-01T16:37:38;30.42;;;12.60;;
36923;SDS011;22841;50.252;18.688;2023-04-01T16:40:43;16.52;;;8.60;;
36923;SDS011;22841;50.252;18.688;2023-04-01T16:51:35;25.92;;;13.93;;
36923;SDS011;22841;50.252;18.688;2023-04-01T16:54:36;11.77;;;6.68;;
36923;SDS011;22841;50.252;18.688;2023-04-01T17:00:12;11.68;;;7.72;;
36923;SDS011;22841;50.252;18.688;2023-04-01T17:02:58;10.00;;;6.40;;
36923;SDS011;22841;50.252;18.688;2023-04-01T17:06:03;8.60;;;5.68;;
36923;SDS011;22841;50.252;18.688;2023-04-01T17:11:33;13.18;;;6.03;;
36923;SDS011;22841;50.252;18.688;2023-04-01T17:22:24;19.10;;;11.48;;
36923;SDS011;22841;50.252;18.688;2023-04-01T17:28:35;17.08;;;8.52;;
36923;SDS011;22841;50.252;18.688;2023-04-01T17:31:21;48.45;;;19.55;;
36923;SDS011;22841;50.252;18.688;2023-04-01T17:45:09;17.95;;;8.65;;
36923;SDS011;22841;50.252;18.688;2023-04-01T17:50:58;11.77;;;6.05;;
36923;SDS011;22841;50.252;18.688;2023-04-01T18:27:04;33.58;;;13.27;;
36923;SDS011;22841;50.252;18.688;2023-04-01T18:29:39;29.30;;;12.68;;
36923;SDS011;22841;50.252;18.688;2023-04-01T18:32:14;28.80;;;11.50;;
36923;SDS011;22841;50.252;18.688;2023-04-01T18:40:02;27.27;;;17.52;;
36923;SDS011;22841;50.252;18.688;2023-04-01T18:42:33;22.55;;;13.63;;
36923;SDS011;22841;50.252;18.688;2023-04-01T18:45:26;29.17;;;14.88;;
36923;SDS011;22841;50.252;18.688;2023-04-01T18:48:03;25.45;;;12.70;;
36923;SDS011;22841;50.252;18.688;2023-04-01T18:50:57;20.60;;;10.02;;
36923;SDS011;22841;50.252;18.688;2023-04-01T18:54:00;19.50;;;13.48;;
36923;SDS011;22841;50.252;18.688;2023-04-01T18:56:36;23.63;;;14.40;;
36923;SDS011;22841;50.252;18.688;2023-04-01T18:59:16;21.50;;;13.43;;
36923;SDS011;22841;50.252;18.688;2023-04-01T19:01:59;24.92;;;15.27;;
36923;SDS011;22841;50.252;18.688;2023-04-01T19:04:47;26.92;;;15.77;;
36923;SDS011;22841;50.252;18.688;2023-04-01T19:10:12;41.45;;;24.60;;
36923;SDS011;22841;50.252;18.688;2023-04-01T19:21:53;83.20;;;37.00;;
36923;SDS011;22841;50.252;18.688;2023-04-01T19:26:48;36.05;;;18.38;;
36923;SDS011;22841;50.252;18.688;2023-04-01T19:37:59;59.55;;;29.50;;
36923;SDS011;22841;50.252;18.688;2023-04-01T19:46:14;95.72;;;44.22;;
36923;SDS011;22841;50.252;18.688;2023-04-01T19:51:35;81.65;;;53.60;;
36923;SDS011;22841;50.252;18.688;2023-04-01T19:56:52;60.50;;;38.38;;
36923;SDS011;22841;50.252;18.688;2023-04-01T19:59:41;55.33;;;27.10;;
36923;SDS011;22841;50.252;18.688;2023-04-01T20:04:53;52.60;;;26.05;;
36923;SDS011;22841;50.252;18.688;2023-04-01T20:10:08;43.50;;;25.15;;
36923;SDS011;22841;50.252;18.688;2023-04-01T20:12:53;45.00;;;25.30;;
36923;SDS011;22841;50.252;18.688;2023-04-01T20:17:58;81.00;;;35.63;;
36923;SDS011;22841;50.252;18.688;2023-04-01T20:20:28;75.05;;;34.58;;
36923;SDS011;22841;50.252;18.688;2023-04-01T20:23:00;72.38;;;35.03;;
36923;SDS011;22841;50.252;18.688;2023-04-01T20:28:12;60.85;;;31.92;;
36923;SDS011;22841;50.252;18.688;2023-04-01T20:47:44;73.25;;;35.42;;
36923;SDS011;22841;50.252;18.688;2023-04-01T20:50:31;54.90;;;29.00;;
36923;SDS011;22841;50.252;18.688;2023-04-01T20:56:11;53.58;;;27.33;;
36923;SDS011;22841;50.252;18.688;2023-04-01T21:07:31;51.55;;;27.20;;
36923;SDS011;22841;50.252;18.688;2023-04-01T21:12:46;51.92;;;30.10;;
36923;SDS011;22841;50.252;18.688;2023-04-01T21:15:45;44.58;;;25.75;;
36923;SDS011;22841;50.252;18.688;2023-04-01T21:26:24;55.92;;;28.50;;
36923;SDS011;22841;50.252;18.688;2023-04-01T21:29:18;65.35;;;32.60;;
36923;SDS011;22841;50.252;18.688;2023-04-01T21:37:49;85.68;;;43.47;;
36923;SDS011;22841;50.252;18.688;2023-04-01T21:43:33;71.30;;;42.35;;
36923;SDS011;22841;50.252;18.688;2023-04-01T21:46:24;62.28;;;38.63;;
36923;SDS011;22841;50.252;18.688;2023-04-01T22:06:34;67.20;;;39.55;;
36923;SDS011;22841;50.252;18.688;2023-04-01T22:09:12;53.60;;;34.50;;
36923;SDS011;22841;50.252;18.688;2023-04-01T22:17:32;52.80;;;27.02;;
36923;SDS011;22841;50.252;18.688;2023-04-01T22:20:12;78.95;;;43.90;;
36923;SDS011;22841;50.252;18.688;2023-04-01T22:22:52;94.05;;;60.10;;
36923;SDS011;22841;50.252;18.688;2023-04-01T22:25:24;102.95;;;61.08;;
36923;SDS011;22841;50.252;18.688;2023-04-01T22:27:58;66.95;;;38.85;;
36923;SDS011;22841;50.252;18.688;2023-04-01T22:30:32;69.75;;;34.25;;
36923;SDS011;22841;50.252;18.688;2023-04-01T22:38:40;51.60;;;30.08;;
36923;SDS011;22841;50.252;18.688;2023-04-01T22:41:28;53.95;;;30.45;;
36923;SDS011;22841;50.252;18.688;2023-04-01T22:44:03;50.17;;;30.33;;
36923;SDS011;22841;50.252;18.688;2023-04-01T22:47:15;53.17;;;31.77;;
36923;SDS011;22841;50.252;18.688;2023-04-01T22:49:58;53.00;;;30.70;;
36923;SDS011;22841;50.252;18.688;2023-04-01T22:55:22;92.80;;;60.22;;
36923;SDS011;22841;50.252;18.688;2023-04-01T23:00:41;73.40;;;36.63;;
36923;SDS011;22841;50.252;18.688;2023-04-01T23:05:52;76.13;;;40.13;;
36923;SDS011;22841;50.252;18.688;2023-04-01T23:11:23;87.22;;;42.13;;
36923;SDS011;22841;50.252;18.688;2023-04-01T23:16:45;137.48;;;78.38;;
36923;SDS011;22841;50.252;18.688;2023-04-01T23:19:29;163.38;;;92.57;;
36923;SDS011;22841;50.252;18.688;2023-04-01T23:27:27;113.97;;;67.55;;
36923;SDS011;22841;50.252;18.688;2023-04-01T23:29:59;119.33;;;65.90;;
36923;SDS011;22841;50.252;18.688;2023-04-01T23:32:26;134.02;;;71.95;;
36923;SDS011;22841;50.252;18.688;2023-04-01T23:34:54;450.90;;;125.57;;
36923;SDS011;22841;50.252;18.688;2023-04-01T23:37:22;935.38;;;253.52;;
36923;SDS011;22841;50.252;18.688;2023-04-01T23:39:50;1369.72;;;314.77;;
36923;SDS011;22841;50.252;18.688;2023-04-01T23:42:31;671.20;;;230.15;;
36923;SDS011;22841;50.252;18.688;2023-04-01T23:45:04;555.63;;;194.82;;
36923;SDS011;22841;50.252;18.688;2023-04-01T23:47:39;431.70;;;168.65;;
36923;SDS011;22841;50.252;18.688;2023-04-01T23:50:10;377.15;;;147.77;;
36923;SDS011;22841;50.252;18.688;2023-04-01T23:52:42;116.82;;;70.43;;
